Time,TemperatureF,DewpointF,PressureIn,WindDirection,WindDirectionDegrees,WindSpeedMPH,WindSpeedGustMPH,Humidity,HourlyPrecipIn,Conditions,Clouds,dailyrainin,SoftwareType,DateUTC
2013-05-16 00:01:00,67.8,46.3,29.93,SW,222,3.8,5.8,46,0.00,CLR,,0.00,WeatherDisplay:10.37,2013-05-16 04:01:00,
2013-05-16 00:06:00,67.3,46.4,29.93,WSW,245,3.8,3.8,47,0.00,CLR,,0.00,WeatherDisplay:10.37,2013-05-16 04:06:00,
2013-05-16 00:11:00,67.1,46.2,29.93,NW,312,4.6,4.6,47,0.00,CLR,,0.00,WeatherDisplay:10.37,2013-05-16 04:11:00,
2013-05-16 00:16:00,66.9,46.0,29.93,SW,222,3.5,3.6,47,0.00,CLR,,0.00,WeatherDisplay:10.37,2013-05-16 04:16:00,
2013-05-16 00:21:00,66.7,45.9,29.93,SSW,199,4.0,4.6,47,0.00,CLR,,0.00,WeatherDisplay:10.37,2013-05-16 04:21:00,
2013-05-16 00:26:00,66.6,46.3,29.93,WSW,245,5.3,5.8,48,0.00,CLR,,0.00,WeatherDisplay:10.37,2013-05-16 04:26:00,
2013-05-16 00:31:00,66.4,46.1,29.93,SSW,199,5.3,5.4,48,0.00,CLR,,0.00,WeatherDisplay:10.37,2013-05-16 04:31:00,
2013-05-16 00:36:00,66.4,46.1,29.93,SSW,199,4.9,4.9,48,0.00,CLR,,0.00,WeatherDisplay:10.37,2013-05-16 04:36:00,
2013-05-16 00:41:00,66.0,45.8,29.93,SW,222,0.9,1.1,48,0.00,CLR,,0.00,WeatherDisplay:10.37,2013-05-16 04:41:00,
2013-05-16 00:46:00,66.0,46.3,29.93,South,177,3.5,3.6,49,0.00,CLR,,0.00,WeatherDisplay:10.37,2013-05-16 04:46:00,
2013-05-16 00:51:00,66.0,46.3,29.93,South,177,3.4,3.5,49,0.00,CLR,,0.00,WeatherDisplay:10.37,2013-05-16 04:51:00,
2013-05-16 00:56:00,65.8,46.1,29.93,SW,222,3.8,6.0,49,0.00,CLR,,0.00,WeatherDisplay:10.37,2013-05-16 04:56:00,
2013-05-16 01:01:00,65.8,46.1,29.93,WSW,245,2.2,2.3,49,0.00,CLR,,0.00,WeatherDisplay:10.37,2013-05-16 05:01:00,
2013-05-16 01:06:00,65.7,46.0,29.93,SW,222,4.7,4.7,49,0.00,CLR,,0.00,WeatherDisplay:10.37,2013-05-16 05:06:00,
2013-05-16 01:11:00,65.5,45.8,29.93,WSW,245,9.2,10.4,49,0.00,CLR,,0.00,WeatherDisplay:10.37,2013-05-16 05:11:00,
2013-05-16 01:16:00,65.5,45.8,29.93,SSW,199,9.0,9.2,49,0.00,CLR,,0.00,WeatherDisplay:10.37,2013-05-16 05:16:00,
2013-05-16 01:21:00,65.5,46.3,29.93,WSW,245,8.3,8.3,50,0.00,CLR,,0.00,WeatherDisplay:10.37,2013-05-16 05:21:00,
2013-05-16 01:26:00,65.5,46.3,29.93,West,267,5.0,5.8,50,0.00,CLR,,0.00,WeatherDisplay:10.37,2013-05-16 05:26:00,
2013-05-16 01:31:00,65.5,46.3,29.93,WSW,245,0.7,3.5,50,0.00,CLR,,0.00,WeatherDisplay:10.37,2013-05-16 05:31:00,
2013-05-16 01:36:00,65.5,46.3,29.93,West,267,7.8,8.1,50,0.00,CLR,,0.00,WeatherDisplay:10.37,2013-05-16 05:36:00,
2013-05-16 01:41:00,65.3,46.2,29.93,SW,222,7.4,7.4,50,0.00,CLR,,0.00,WeatherDisplay:10.37,2013-05-16 05:41:00,
2013-05-16 01:46:00,65.1,46.0,29.93,SW,222,5.1,5.1,50,0.00,CLR,,0.00,WeatherDisplay:10.37,2013-05-16 05:46:00,
2013-05-16 01:51:00,65.1,46.0,29.93,WSW,245,2.9,3.5,50,0.00,CLR,,0.00,WeatherDisplay:10.37,2013-05-16 05:51:00,
2013-05-16 01:56:00,64.9,45.8,29.93,South,177,3.3,3.5,50,0.00,CLR,,0.00,WeatherDisplay:10.37,2013-05-16 05:56:00,
2013-05-16 02:01:00,64.9,45.8,29.93,South,177,1.7,2.3,50,0.00,CLR,,0.00,WeatherDisplay:10.37,2013-05-16 06:01:00,
2013-05-16 02:06:00,64.8,45.7,29.93,SSW,199,0.0,3.5,50,0.00,CLR,,0.00,WeatherDisplay:10.37,2013-05-16 06:06:00,
2013-05-16 02:11:00,64.6,45.5,29.93,SW,222,1.8,2.2,50,0.00,CLR,,0.00,WeatherDisplay:10.37,2013-05-16 06:11:00,
2013-05-16 02:16:00,64.6,45.5,29.93,WSW,245,9.9,10.4,50,0.00,CLR,,0.00,WeatherDisplay:10.37,2013-05-16 06:16:00,
2013-05-16 02:21:00,64.6,46.0,29.93,SW,222,2.5,3.5,51,0.00,CLR,,0.00,WeatherDisplay:10.37,2013-05-16 06:21:00,
2013-05-16 02:26:00,64.2,45.7,29.93,SW,222,0.0,11.6,51,0.00,CLR,,0.00,WeatherDisplay:10.37,2013-05-16 06:26:00,
2013-05-16 02:31:00,64.2,45.7,29.93,West,267,6.3,8.1,51,0.00,CLR,,0.00,WeatherDisplay:10.37,2013-05-16 06:31:00,
2013-05-16 02:36:00,64.2,45.7,29.93,West,267,4.7,4.7,51,0.00,CLR,,0.00,WeatherDisplay:10.37,2013-05-16 06:36:00,
2013-05-16 02:41:00,64.2,45.7,29.93,WSW,245,3.8,3.8,51,0.00,CLR,,0.00,WeatherDisplay:10.37,2013-05-16 06:41:00,
2013-05-16 02:46:00,64.2,46.2,29.93,SW,222,4.3,5.8,52,0.00,CLR,,0.00,WeatherDisplay:10.37,2013-05-16 06:46:00,
2013-05-16 02:51:00,64.0,46.1,29.93,SSW,199,2.5,2.5,52,0.00,CLR,,0.00,WeatherDisplay:10.37,2013-05-16 06:51:00,
2013-05-16 02:56:00,63.9,45.9,29.93,West,267,4.2,4.6,52,0.00,CLR,,0.00,WeatherDisplay:10.37,2013-05-16 06:56:00,
2013-05-16 03:01:00,63.7,45.7,29.93,WSW,245,2.3,2.3,52,0.00,CLR,,0.00,WeatherDisplay:10.37,2013-05-16 07:01:00,
2013-05-16 03:06:00,63.7,45.7,29.93,West,267,2.9,3.5,52,0.00,CLR,,0.00,WeatherDisplay:10.37,2013-05-16 07:06:00,
2013-05-16 03:11:00,63.7,46.2,29.93,West,267,4.7,4.7,53,0.00,CLR,,0.00,WeatherDisplay:10.37,2013-05-16 07:11:00,
2013-05-16 03:16:00,63.7,46.2,29.93,WSW,245,2.2,2.3,53,0.00,CLR,,0.00,WeatherDisplay:10.37,2013-05-16 07:16:00,
2013-05-16 03:21:00,63.3,45.9,29.93,SW,222,6.7,8.1,53,0.00,CLR,,0.00,WeatherDisplay:10.37,2013-05-16 07:21:00,
2013-05-16 03:26:00,63.1,45.7,29.93,SW,222,0.4,3.8,53,0.00,CLR,,0.00,WeatherDisplay:10.37,2013-05-16 07:26:00,
2013-05-16 03:31:00,63.1,46.2,29.93,SW,222,3.1,3.5,54,0.00,CLR,,0.00,WeatherDisplay:10.37,2013-05-16 07:31:00,
2013-05-16 03:36:00,63.1,46.2,29.92,WSW,245,3.4,3.5,54,0.00,CLR,,0.00,WeatherDisplay:10.37,2013-05-16 07:36:00,
2013-05-16 03:41:00,63.0,46.0,29.92,WSW,245,2.7,3.5,54,0.00,CLR,,0.00,WeatherDisplay:10.37,2013-05-16 07:41:00,
2013-05-16 03:46:00,62.8,46.4,29.92,WSW,245,0.1,2.3,55,0.00,CLR,,0.00,WeatherDisplay:10.37,2013-05-16 07:46:00,
2013-05-16 03:51:00,62.8,46.4,29.92,WSW,245,4.4,5.8,55,0.00,CLR,,0.00,WeatherDisplay:10.37,2013-05-16 07:51:00,
2013-05-16 03:56:00,62.8,46.4,29.92,WSW,245,3.2,4.0,55,0.00,CLR,,0.00,WeatherDisplay:10.37,2013-05-16 07:56:00,
2013-05-16 04:01:00,62.8,46.4,29.92,South,177,2.7,3.5,55,0.00,CLR,,0.00,WeatherDisplay:10.37,2013-05-16 08:01:00,
2013-05-16 04:06:00,62.8,46.4,29.93,SSW,199,3.6,3.6,55,0.00,CLR,,0.00,WeatherDisplay:10.37,2013-05-16 08:06:00,
2013-05-16 04:11:00,62.8,46.4,29.93,SW,222,1.1,1.1,55,0.00,CLR,,0.00,WeatherDisplay:10.37,2013-05-16 08:11:00,
2013-05-16 04:16:00,62.8,46.4,29.93,WSW,245,2.6,3.1,55,0.00,CLR,,0.00,WeatherDisplay:10.37,2013-05-16 08:16:00,
2013-05-16 04:21:00,62.8,46.8,29.93,South,177,3.1,3.5,56,0.00,CLR,,0.00,WeatherDisplay:10.37,2013-05-16 08:21:00,
2013-05-16 04:26:00,62.8,47.3,29.93,WSW,245,4.9,4.9,57,0.00,CLR,,0.00,WeatherDisplay:10.37,2013-05-16 08:26:00,
2013-05-16 04:31:00,61.9,46.5,29.93,SW,222,2.2,2.3,57,0.00,CLR,,0.00,WeatherDisplay:10.37,2013-05-16 08:31:00,
2013-05-16 04:36:00,61.9,46.5,29.93,WSW,245,2.2,3.5,57,0.00,CLR,,0.00,WeatherDisplay:10.37,2013-05-16 08:36:00,
2013-05-16 04:41:00,61.7,46.3,29.93,West,267,2.0,3.5,57,0.00,CLR,,0.00,WeatherDisplay:10.37,2013-05-16 08:41:00,
2013-05-16 04:46:00,61.7,47.2,29.93,WSW,245,3.4,3.5,59,0.00,CLR,,0.00,WeatherDisplay:10.37,2013-05-16 08:46:00,
2013-05-16 04:51:00,61.7,46.8,29.92,SW,222,2.2,3.5,58,0.00,CLR,,0.00,WeatherDisplay:10.37,2013-05-16 08:51:00,
2013-05-16 04:56:00,61.5,47.1,29.92,SW,222,3.8,3.8,59,0.00,CLR,,0.00,WeatherDisplay:10.37,2013-05-16 08:56:00,
2013-05-16 05:01:00,61.5,47.1,29.93,SSW,199,2.0,4.6,59,0.00,CLR,,0.00,WeatherDisplay:10.37,2013-05-16 09:01:00,
2013-05-16 05:06:00,61.5,47.1,29.92,SW,222,2.2,5.8,59,0.00,CLR,,0.00,WeatherDisplay:10.37,2013-05-16 09:06:00,
2013-05-16 05:11:00,61.5,47.1,29.93,SW,222,2.5,3.5,59,0.00,CLR,,0.00,WeatherDisplay:10.37,2013-05-16 09:11:00,
2013-05-16 05:16:00,61.5,47.1,29.93,West,267,5.8,5.8,59,0.00,CLR,,0.00,WeatherDisplay:10.37,2013-05-16 09:16:00,
2013-05-16 05:21:00,61.5,47.1,29.93,SSW,199,3.6,3.6,59,0.00,CLR,,0.00,WeatherDisplay:10.37,2013-05-16 09:21:00,
2013-05-16 05:22:00,78.1,61.1,29.97,West,263,2.0,0.0,56,0.00,OVC,,0.00,WeatherDisplay:10.37,2013-05-16 09:22:00,
2013-05-16 05:23:00,78.1,61.1,29.97,West,263,2.0,0.0,56,0.00,OVC,,0.00,WeatherDisplay:10.37,2013-05-16 09:23:00,
2013-05-16 05:24:00,78.1,61.1,29.97,West,263,2.0,0.0,56,0.00,OVC,,0.00,WeatherDisplay:10.37,2013-05-16 09:24:00,
2013-05-16 05:25:00,78.1,61.1,29.97,West,263,2.0,0.0,56,0.00,OVC,,0.00,WeatherDisplay:10.37,2013-05-16 09:25:00,
2013-05-16 05:26:00,61.5,47.1,29.93,West,267,2.7,2.7,59,0.00,CLR,,0.00,WeatherDisplay:10.37,2013-05-16 09:26:00,
2013-05-16 05:31:00,61.5,47.5,29.93,SSW,199,2.6,3.5,60,0.00,CLR,,0.00,WeatherDisplay:10.37,2013-05-16 09:31:00,
2013-05-16 05:36:00,61.5,47.9,29.93,WSW,245,2.9,5.8,61,0.00,CLR,,0.00,WeatherDisplay:10.37,2013-05-16 09:36:00,
2013-05-16 05:41:00,61.7,48.1,29.93,SW,222,0.5,3.5,61,0.00,CLR,,0.00,WeatherDisplay:10.37,2013-05-16 09:41:00,
2013-05-16 05:46:00,61.7,48.5,29.93,SSW,199,1.9,3.5,62,0.00,CLR,,0.00,WeatherDisplay:10.37,2013-05-16 09:46:00,
2013-05-16 05:51:00,61.7,48.1,29.93,NW,312,3.6,3.6,61,0.00,CLR,,0.00,WeatherDisplay:10.37,2013-05-16 09:51:00,
2013-05-16 05:56:00,61.7,48.5,29.94,SW,222,3.6,3.6,62,0.00,CLR,,0.00,WeatherDisplay:10.37,2013-05-16 09:56:00,
2013-05-16 06:01:00,61.9,48.7,29.94,SW,222,2.9,8.1,62,0.00,CLR,,0.00,WeatherDisplay:10.37,2013-05-16 10:01:00,
2013-05-16 06:06:00,61.9,48.7,29.94,SW,222,1.7,3.5,62,0.00,CLR,,0.00,WeatherDisplay:10.37,2013-05-16 10:06:00,
2013-05-16 06:11:00,61.9,48.7,29.94,WSW,245,1.5,2.3,62,0.00,CLR,,0.00,WeatherDisplay:10.37,2013-05-16 10:11:00,
2013-05-16 06:16:00,61.9,48.7,29.94,West,267,2.4,2.5,62,0.00,CLR,,0.00,WeatherDisplay:10.37,2013-05-16 10:16:00,
2013-05-16 06:21:00,61.9,48.7,29.94,South,177,3.6,3.6,62,0.00,CLR,,0.00,WeatherDisplay:10.37,2013-05-16 10:21:00,
2013-05-16 06:26:00,61.9,48.7,29.94,SW,222,4.0,4.6,62,0.00,CLR,,0.00,WeatherDisplay:10.37,2013-05-16 10:26:00,
2013-05-16 06:31:00,61.9,48.7,29.94,SSW,199,2.9,3.5,62,0.00,CLR,,0.00,WeatherDisplay:10.37,2013-05-16 10:31:00,
2013-05-16 06:36:00,61.9,48.7,29.94,West,267,3.1,3.5,62,0.00,CLR,,0.00,WeatherDisplay:10.37,2013-05-16 10:36:00,
2013-05-16 06:41:00,61.9,48.7,29.94,SW,222,4.6,4.6,62,0.00,CLR,,0.00,WeatherDisplay:10.37,2013-05-16 10:41:00,
2013-05-16 06:46:00,62.1,48.9,29.94,West,267,2.5,3.5,62,0.00,CLR,,0.00,WeatherDisplay:10.37,2013-05-16 10:46:00,
2013-05-16 06:51:00,62.1,49.3,29.94,WSW,245,3.8,6.9,63,0.00,CLR,,0.00,WeatherDisplay:10.37,2013-05-16 10:51:00,
2013-05-16 06:56:00,62.2,49.5,29.94,West,267,4.9,5.8,63,0.00,CLR,,0.00,WeatherDisplay:10.37,2013-05-16 10:56:00,
2013-05-16 07:01:00,62.4,49.7,29.94,WSW,245,2.5,3.5,63,0.00,CLR,,0.00,WeatherDisplay:10.37,2013-05-16 11:01:00,
2013-05-16 07:06:00,62.4,49.7,29.94,South,177,5.1,5.1,63,0.00,CLR,,0.00,WeatherDisplay:10.37,2013-05-16 11:06:00,
2013-05-16 07:11:00,62.8,50.0,29.94,West,267,6.0,8.1,63,0.00,FEW,,0.00,WeatherDisplay:10.37,2013-05-16 11:11:00,
2013-05-16 07:16:00,63.0,50.6,29.94,WNW,289,3.5,3.6,64,0.00,FEW,,0.00,WeatherDisplay:10.37,2013-05-16 11:16:00,
2013-05-16 07:21:00,63.0,50.6,29.95,WSW,245,2.7,3.5,64,0.00,FEW,,0.00,WeatherDisplay:10.37,2013-05-16 11:21:00,
2013-05-16 07:26:00,63.1,50.8,29.95,SW,222,4.9,5.8,64,0.00,FEW,,0.00,WeatherDisplay:10.37,2013-05-16 11:26:00,
2013-05-16 07:31:00,63.1,50.8,29.95,West,267,2.5,5.8,64,0.00,FEW,,0.00,WeatherDisplay:10.37,2013-05-16 11:31:00,
2013-05-16 07:36:00,63.3,50.9,29.95,SW,222,5.4,5.8,64,0.00,FEW,,0.00,WeatherDisplay:10.37,2013-05-16 11:36:00,
2013-05-16 07:41:00,63.5,50.7,29.95,WNW,289,1.3,1.3,63,0.00,FEW,,0.00,WeatherDisplay:10.37,2013-05-16 11:41:00,
2013-05-16 07:46:00,63.7,51.3,29.95,SSE,155,3.7,6.9,64,0.00,FEW,,0.00,WeatherDisplay:10.37,2013-05-16 11:46:00,
2013-05-16 07:51:00,63.9,51.4,29.96,South,177,3.8,3.8,64,0.00,FEW,,0.00,WeatherDisplay:10.37,2013-05-16 11:51:00,
2013-05-16 07:56:00,64.0,51.6,29.96,SSE,155,5.7,5.8,64,0.00,FEW,,0.00,WeatherDisplay:10.37,2013-05-16 11:56:00,
2013-05-16 08:01:00,64.2,51.8,29.96,WSW,245,4.0,4.7,64,0.00,FEW,,0.00,WeatherDisplay:10.37,2013-05-16 12:01:00,
2013-05-16 08:06:00,64.2,51.4,29.97,SW,222,5.1,5.1,63,0.00,FEW,,0.00,WeatherDisplay:10.37,2013-05-16 12:06:00,
2013-05-16 08:11:00,64.6,52.1,29.97,WNW,289,4.2,9.2,64,0.00,BKN,,0.00,WeatherDisplay:10.37,2013-05-16 12:11:00,
2013-05-16 08:16:00,64.9,52.5,29.97,West,267,3.0,3.5,64,0.00,BKN,,0.00,WeatherDisplay:10.37,2013-05-16 12:16:00,
2013-05-16 08:21:00,65.1,52.6,29.97,SE,132,4.6,4.7,64,0.00,BKN,,0.00,WeatherDisplay:10.37,2013-05-16 12:21:00,
2013-05-16 08:26:00,65.5,53.4,29.97,SW,222,2.9,3.5,65,0.00,BKN,,0.00,WeatherDisplay:10.37,2013-05-16 12:26:00,
2013-05-16 08:31:00,66.0,53.5,29.97,SW,222,4.7,4.9,64,0.00,BKN,,0.00,WeatherDisplay:10.37,2013-05-16 12:31:00,
2013-05-16 08:36:00,66.4,53.8,29.97,SSW,199,2.5,2.5,64,0.00,BKN,,0.00,WeatherDisplay:10.37,2013-05-16 12:36:00,
2013-05-16 08:41:00,66.9,54.3,29.97,West,267,1.5,7.6,64,0.00,BKN,,0.00,WeatherDisplay:10.37,2013-05-16 12:41:00,
2013-05-16 08:46:00,67.3,54.3,29.97,SSW,199,2.4,3.5,63,0.00,BKN,,0.00,WeatherDisplay:10.37,2013-05-16 12:46:00,
2013-05-16 08:51:00,67.8,54.8,29.96,West,267,5.8,5.8,63,0.00,BKN,,0.00,WeatherDisplay:10.37,2013-05-16 12:51:00,
2013-05-16 08:56:00,68.7,56.0,29.96,SSW,199,6.2,8.3,64,0.00,BKN,,0.00,WeatherDisplay:10.37,2013-05-16 12:56:00,
2013-05-16 09:01:00,69.3,56.1,29.97,SW,222,4.0,4.6,63,0.00,BKN,,0.00,WeatherDisplay:10.37,2013-05-16 13:01:00,
2013-05-16 09:06:00,69.6,56.0,29.97,West,267,4.5,4.6,62,0.00,BKN,,0.00,WeatherDisplay:10.37,2013-05-16 13:06:00,
2013-05-16 09:11:00,70.2,56.5,29.97,WNW,289,5.6,8.1,62,0.00,OVC,,0.00,WeatherDisplay:10.37,2013-05-16 13:11:00,
2013-05-16 09:16:00,70.5,56.9,29.97,WSW,245,3.8,3.8,62,0.00,OVC,,0.00,WeatherDisplay:10.37,2013-05-16 13:16:00,
2013-05-16 09:21:00,70.9,56.8,29.97,WSW,245,4.9,17.0,61,0.00,OVC,,0.00,WeatherDisplay:10.37,2013-05-16 13:21:00,
2013-05-16 09:26:00,71.8,57.6,29.97,WSW,245,6.3,6.3,61,0.00,OVC,,0.00,WeatherDisplay:10.37,2013-05-16 13:26:00,
2013-05-16 09:31:00,72.1,57.5,29.97,WSW,245,3.8,4.6,60,0.00,OVC,,0.00,WeatherDisplay:10.37,2013-05-16 13:31:00,
2013-05-16 09:36:00,72.5,57.8,29.97,SW,222,14.3,14.3,60,0.00,OVC,,0.00,WeatherDisplay:10.37,2013-05-16 13:36:00,
2013-05-16 09:41:00,73.0,58.3,29.97,WSW,245,5.1,8.1,60,0.00,OVC,,0.00,WeatherDisplay:10.37,2013-05-16 13:41:00,
2013-05-16 09:46:00,73.4,58.2,29.97,WSW,245,2.7,2.7,59,0.00,OVC,,0.00,WeatherDisplay:10.37,2013-05-16 13:46:00,
2013-05-16 09:51:00,74.1,58.9,29.97,West,267,3.6,3.6,59,0.00,OVC,,0.00,WeatherDisplay:10.37,2013-05-16 13:51:00,
2013-05-16 09:56:00,75.0,59.2,29.97,WSW,245,7.1,12.7,58,0.00,OVC,,0.00,WeatherDisplay:10.37,2013-05-16 13:56:00,
2013-05-16 10:01:00,75.6,58.8,29.98,SW,222,14.3,14.3,56,0.00,OVC,,0.00,WeatherDisplay:10.37,2013-05-16 14:01:00,
2013-05-16 10:06:00,75.4,58.6,29.98,WSW,245,10.1,10.4,56,0.00,OVC,,0.00,WeatherDisplay:10.37,2013-05-16 14:06:00,
2013-05-16 10:11:00,75.4,58.6,29.98,West,267,8.0,8.1,56,0.00,OVC,,0.00,WeatherDisplay:10.37,2013-05-16 14:11:00,
2013-05-16 10:16:00,75.4,58.6,29.98,WSW,245,5.5,5.8,56,0.00,OVC,,0.00,WeatherDisplay:10.37,2013-05-16 14:16:00,
2013-05-16 10:21:00,75.4,58.6,29.98,WSW,245,6.6,8.1,56,0.00,OVC,,0.00,WeatherDisplay:10.37,2013-05-16 14:21:00,
2013-05-16 10:26:00,75.4,58.6,29.98,WSW,245,8.0,8.1,56,0.00,OVC,,0.00,WeatherDisplay:10.37,2013-05-16 14:26:00,
2013-05-16 10:31:00,74.8,58.1,29.98,WSW,245,4.9,5.8,56,0.00,OVC,,0.00,WeatherDisplay:10.37,2013-05-16 14:31:00,
2013-05-16 10:36:00,73.9,57.3,29.98,WSW,245,4.5,6.9,56,0.00,OVC,,0.00,WeatherDisplay:10.37,2013-05-16 14:36:00,
2013-05-16 10:41:00,72.9,56.7,29.98,WSW,245,10.2,11.5,57,0.00,OVC,,0.00,WeatherDisplay:10.37,2013-05-16 14:41:00,
2013-05-16 10:46:00,72.3,56.7,29.98,South,177,0.0,0.0,58,0.00,OVC,,0.00,WeatherDisplay:10.37,2013-05-16 14:46:00,
2013-05-16 10:51:00,72.3,57.2,29.98,SW,222,3.1,3.5,59,0.00,OVC,,0.00,WeatherDisplay:10.37,2013-05-16 14:51:00,
2013-05-16 10:56:00,72.3,57.2,29.97,WSW,245,5.6,5.8,59,0.00,OVC,,0.00,WeatherDisplay:10.37,2013-05-16 14:56:00,
2013-05-16 11:01:00,72.3,57.7,29.98,SE,132,5.0,5.0,60,0.00,OVC,,0.00,WeatherDisplay:10.37,2013-05-16 15:01:00,
2013-05-16 11:06:00,72.5,57.8,29.97,WNW,289,4.9,4.9,60,0.00,OVC,,0.00,WeatherDisplay:10.37,2013-05-16 15:06:00,
2013-05-16 11:11:00,72.7,58.0,29.98,SW,222,8.3,8.3,60,0.00,OVC,,0.00,WeatherDisplay:10.37,2013-05-16 15:11:00,
2013-05-16 11:16:00,72.7,58.0,29.96,West,267,4.2,4.6,60,0.00,OVC,,0.00,WeatherDisplay:10.37,2013-05-16 15:16:00,
2013-05-16 11:21:00,73.8,59.0,29.97,SW,222,3.8,3.8,60,0.00,OVC,,0.00,WeatherDisplay:10.37,2013-05-16 15:21:00,
2013-05-16 11:26:00,73.8,59.0,29.96,WNW,289,4.8,6.9,60,0.00,OVC,,0.00,WeatherDisplay:10.37,2013-05-16 15:26:00,
2013-05-16 11:31:00,76.8,60.9,29.96,WSW,245,8.5,9.2,58,0.00,OVC,,0.00,WeatherDisplay:10.37,2013-05-16 15:31:00,
2013-05-16 11:36:00,77.5,61.6,29.96,SW,222,4.5,4.6,58,0.00,OVC,,0.00,WeatherDisplay:10.37,2013-05-16 15:36:00,
2013-05-16 11:41:00,79.7,62.6,29.96,WSW,245,12.5,12.7,56,0.00,OVC,,0.00,WeatherDisplay:10.37,2013-05-16 15:41:00,
2013-05-16 11:46:00,80.4,62.8,29.96,SW,222,11.8,11.8,55,0.00,OVC,,0.00,WeatherDisplay:10.37,2013-05-16 15:46:00,
2013-05-16 11:51:00,81.5,62.7,29.96,West,267,6.3,10.1,53,0.00,OVC,,0.00,WeatherDisplay:10.37,2013-05-16 15:51:00,
2013-05-16 11:56:00,81.5,62.2,29.96,West,267,9.4,9.4,52,0.00,OVC,,0.00,WeatherDisplay:10.37,2013-05-16 15:56:00,
2013-05-16 12:01:00,81.0,61.7,29.97,WNW,289,9.8,13.8,52,0.00,OVC,,0.00,WeatherDisplay:10.37,2013-05-16 16:01:00,
2013-05-16 12:06:00,80.1,60.8,29.97,WSW,245,10.7,15.0,52,0.00,OVC,,0.00,WeatherDisplay:10.37,2013-05-16 16:06:00,
2013-05-16 12:11:00,79.5,60.9,29.97,SSW,199,4.8,5.8,53,0.00,OVC,,0.00,WeatherDisplay:10.37,2013-05-16 16:11:00,
2013-05-16 12:16:00,78.6,60.1,29.97,North,357,6.5,6.9,53,0.00,OVC,,0.00,WeatherDisplay:10.37,2013-05-16 16:16:00,
2013-05-16 12:21:00,77.9,59.9,29.97,West,267,9.9,10.4,54,0.00,OVC,,0.00,WeatherDisplay:10.37,2013-05-16 16:21:00,
2013-05-16 12:26:00,77.5,60.6,29.97,WSW,245,13.4,14.3,56,0.00,OVC,,0.00,WeatherDisplay:10.37,2013-05-16 16:26:00,
2013-05-16 12:31:00,77.5,60.6,29.97,WSW,245,1.9,3.5,56,0.00,OVC,,0.00,WeatherDisplay:10.37,2013-05-16 16:31:00,
2013-05-16 12:36:00,77.5,60.6,29.97,WSW,245,3.1,3.5,56,0.00,OVC,,0.00,WeatherDisplay:10.37,2013-05-16 16:36:00,
2013-05-16 12:41:00,77.5,60.6,29.97,West,267,3.1,4.6,56,0.00,OVC,,0.00,WeatherDisplay:10.37,2013-05-16 16:41:00,
2013-05-16 12:46:00,77.5,60.6,29.97,WNW,289,11.3,12.7,56,0.00,OVC,,0.00,WeatherDisplay:10.37,2013-05-16 16:46:00,
2013-05-16 12:51:00,77.2,60.3,29.97,West,267,9.2,9.2,56,0.00,OVC,,0.00,WeatherDisplay:10.37,2013-05-16 16:51:00,
2013-05-16 12:56:00,77.4,60.9,29.98,SW,222,2.4,9.2,57,0.00,OVC,,0.00,WeatherDisplay:10.37,2013-05-16 16:56:00,
2013-05-16 13:01:00,77.4,60.9,29.97,SW,222,6.3,6.3,57,0.00,OVC,,0.00,WeatherDisplay:10.37,2013-05-16 17:01:00,
2013-05-16 13:06:00,77.7,61.3,29.97,NW,312,5.5,5.8,57,0.00,OVC,,0.00,WeatherDisplay:10.37,2013-05-16 17:06:00,
2013-05-16 13:11:00,78.6,61.6,29.97,WSW,245,7.0,8.1,56,0.00,-RA,,0.00,WeatherDisplay:10.37,2013-05-16 17:11:00,
2013-05-16 13:16:00,78.8,61.3,29.97,WNW,289,5.7,5.8,55,0.00,-RA,,0.00,WeatherDisplay:10.37,2013-05-16 17:16:00,
2013-05-16 13:21:00,79.2,61.6,29.97,SW,222,5.1,5.8,55,0.00,-RA,,0.00,WeatherDisplay:10.37,2013-05-16 17:21:00,
2013-05-16 13:26:00,80.6,62.9,29.97,NW,312,6.1,9.2,55,0.00,-RA,,0.00,WeatherDisplay:10.37,2013-05-16 17:26:00,
2013-05-16 13:31:00,80.8,62.1,29.97,WNW,289,11.0,13.8,53,0.00,-RA,,0.00,WeatherDisplay:10.37,2013-05-16 17:31:00,
2013-05-16 13:36:00,79.2,61.1,29.97,West,267,0.8,1.1,54,0.00,-RA,,0.00,WeatherDisplay:10.37,2013-05-16 17:36:00,
2013-05-16 13:41:00,78.6,61.1,29.97,SSW,199,1.2,2.3,55,0.00,-RA,,0.00,WeatherDisplay:10.37,2013-05-16 17:41:00,
2013-05-16 13:46:00,78.4,60.9,29.97,West,267,5.4,5.8,55,0.00,-RA,,0.00,WeatherDisplay:10.37,2013-05-16 17:46:00,
2013-05-16 13:51:00,77.7,60.3,29.98,West,267,2.0,2.3,55,0.00,-RA,,0.00,WeatherDisplay:10.37,2013-05-16 17:51:00,
2013-05-16 13:56:00,77.5,60.6,29.97,WSW,245,7.9,11.5,56,0.00,-RA,,0.00,WeatherDisplay:10.37,2013-05-16 17:56:00,
2013-05-16 14:01:00,77.4,60.9,29.97,SSW,199,2.3,2.3,57,0.00,-RA,,0.00,WeatherDisplay:10.37,2013-05-16 18:01:00,
2013-05-16 14:06:00,77.7,61.3,29.98,West,267,5.6,5.8,57,0.00,-RA,,0.00,WeatherDisplay:10.37,2013-05-16 18:06:00,
2013-05-16 14:11:00,77.7,60.8,29.97,West,267,3.1,3.5,56,0.00,OVC,,0.00,WeatherDisplay:10.37,2013-05-16 18:11:00,
2013-05-16 14:16:00,77.5,61.1,29.98,WSW,245,6.9,6.9,57,0.00,OVC,,0.00,WeatherDisplay:10.37,2013-05-16 18:16:00,
2013-05-16 14:21:00,77.2,60.8,29.98,SW,222,10.7,11.5,57,0.00,OVC,,0.00,WeatherDisplay:10.37,2013-05-16 18:21:00,
2013-05-16 14:26:00,77.0,60.6,29.98,WNW,289,2.9,6.9,57,0.00,OVC,,0.00,WeatherDisplay:10.37,2013-05-16 18:26:00,
2013-05-16 14:31:00,76.8,60.9,29.97,WSW,245,6.3,6.3,58,0.00,OVC,,0.00,WeatherDisplay:10.37,2013-05-16 18:31:00,
2013-05-16 14:36:00,76.8,60.9,29.97,West,267,5.5,5.8,58,0.00,OVC,,0.00,WeatherDisplay:10.37,2013-05-16 18:36:00,
2013-05-16 14:41:00,77.0,61.1,29.97,WNW,289,3.7,4.9,58,0.00,OVC,,0.00,WeatherDisplay:10.37,2013-05-16 18:41:00,
2013-05-16 14:46:00,77.4,60.9,29.97,West,267,2.7,2.7,57,0.00,OVC,,0.00,WeatherDisplay:10.37,2013-05-16 18:46:00,
2013-05-16 14:51:00,77.7,61.3,29.97,SW,222,7.5,8.1,57,0.00,OVC,,0.00,WeatherDisplay:10.37,2013-05-16 18:51:00,
2013-05-16 14:56:00,78.6,61.6,29.97,NW,312,7.0,12.7,56,0.00,OVC,,0.00,WeatherDisplay:10.37,2013-05-16 18:56:00,
2013-05-16 15:01:00,78.8,61.8,29.97,SSE,155,4.9,5.8,56,0.00,OVC,,0.00,WeatherDisplay:10.37,2013-05-16 19:01:00,
2013-05-16 15:06:00,78.6,61.1,29.97,SSW,199,4.7,4.7,55,0.00,OVC,,0.00,WeatherDisplay:10.37,2013-05-16 19:06:00,
2013-05-16 15:11:00,78.4,61.4,29.98,WNW,289,5.3,6.9,56,0.00,OVC,,0.00,WeatherDisplay:10.37,2013-05-16 19:11:00,
2013-05-16 15:16:00,78.3,61.3,29.98,West,267,0.1,0.0,56,0.00,OVC,,0.00,WeatherDisplay:10.37,2013-05-16 19:16:00,
2013-05-16 15:23:00,78.1,61.6,29.98,ENE,65,1.1,1.1,57,0.00,OVC,,0.00,WeatherDisplay:10.37,2013-05-16 19:23:00,
2013-05-16 15:28:00,77.9,61.4,29.98,West,267,2.6,3.6,57,0.00,OVC,,0.00,WeatherDisplay:10.37,2013-05-16 19:28:00,
2013-05-16 15:33:00,77.7,61.3,29.98,West,267,2.7,2.7,57,0.00,OVC,,0.00,WeatherDisplay:10.37,2013-05-16 19:33:00,
2013-05-16 15:38:00,77.7,61.3,29.97,WNW,289,5.4,5.8,57,0.00,OVC,,0.00,WeatherDisplay:10.37,2013-05-16 19:38:00,
2013-05-16 15:43:00,77.5,61.1,29.97,NW,312,2.6,3.5,57,0.00,OVC,,0.00,WeatherDisplay:10.37,2013-05-16 19:43:00,
2013-05-16 15:48:00,77.5,61.6,29.97,WNW,289,2.7,3.5,58,0.00,OVC,,0.00,WeatherDisplay:10.37,2013-05-16 19:48:00,
2013-05-16 15:53:00,77.9,61.9,29.97,WSW,245,0.9,1.1,58,0.00,OVC,,0.00,WeatherDisplay:10.37,2013-05-16 19:53:00,
2013-05-16 15:58:00,78.6,62.1,29.97,SW,222,1.2,2.3,57,0.00,OVC,,0.00,WeatherDisplay:10.37,2013-05-16 19:58:00,
2013-05-16 16:03:00,78.6,61.6,29.97,WSW,245,2.7,3.5,56,0.00,OVC,,0.00,WeatherDisplay:10.37,2013-05-16 20:03:00,
2013-05-16 16:08:00,78.4,61.4,29.96,NW,312,2.2,2.3,56,0.00,OVC,,0.00,WeatherDisplay:10.37,2013-05-16 20:08:00,
2013-05-16 16:13:00,78.3,61.3,29.97,NW,312,2.0,2.3,56,0.00,BKN,,0.00,WeatherDisplay:10.37,2013-05-16 20:13:00,
2013-05-16 16:18:00,78.1,61.1,29.96,NNW,335,2.4,3.5,56,0.00,BKN,,0.00,WeatherDisplay:10.37,2013-05-16 20:18:00,
2013-05-16 16:23:00,78.3,61.3,29.96,West,267,2.5,2.5,56,0.00,BKN,,0.00,WeatherDisplay:10.37,2013-05-16 20:23:00,
2013-05-16 16:28:00,78.6,62.1,29.96,WSW,245,0.6,1.6,57,0.00,BKN,,0.00,WeatherDisplay:10.37,2013-05-16 20:28:00,
2013-05-16 16:33:00,79.0,62.9,29.96,ESE,109,0.0,0.0,58,0.00,BKN,,0.00,WeatherDisplay:10.37,2013-05-16 20:33:00,
2013-05-16 16:38:00,79.3,62.3,29.95,West,267,0.0,0.0,56,0.00,BKN,,0.00,WeatherDisplay:10.37,2013-05-16 20:38:00,
2013-05-16 16:43:00,80.2,63.1,29.95,West,267,0.7,1.1,56,0.00,BKN,,0.00,WeatherDisplay:10.37,2013-05-16 20:43:00,
2013-05-16 16:48:00,80.4,62.8,29.95,WNW,289,0.0,0.0,55,0.00,BKN,,0.00,WeatherDisplay:10.37,2013-05-16 20:48:00,
2013-05-16 16:53:00,80.6,62.9,29.95,NW,312,0.0,0.0,55,0.00,BKN,,0.00,WeatherDisplay:10.37,2013-05-16 20:53:00,
2013-05-16 16:58:00,81.3,63.6,29.95,West,267,0.0,0.0,55,0.00,BKN,,0.00,WeatherDisplay:10.37,2013-05-16 20:58:00,
2013-05-16 17:03:00,82.0,63.2,29.95,WNW,289,0.1,3.5,53,0.00,BKN,,0.00,WeatherDisplay:10.37,2013-05-16 21:03:00,
2013-05-16 17:08:00,82.0,62.7,29.94,WNW,289,2.2,2.3,52,0.00,BKN,,0.00,WeatherDisplay:10.37,2013-05-16 21:08:00,
2013-05-16 17:13:00,82.6,63.2,29.94,WNW,289,0.6,0.9,52,0.00,BKN,,0.00,WeatherDisplay:10.37,2013-05-16 21:13:00,
2013-05-16 17:18:00,82.8,62.8,29.94,SE,132,0.0,0.0,51,0.00,BKN,,0.00,WeatherDisplay:10.37,2013-05-16 21:18:00,
2013-05-16 17:23:00,82.9,63.0,29.94,WNW,289,2.2,2.3,51,0.00,BKN,,0.00,WeatherDisplay:10.37,2013-05-16 21:23:00,
2013-05-16 17:28:00,82.2,62.3,29.94,West,267,0.8,1.3,51,0.00,BKN,,0.00,WeatherDisplay:10.37,2013-05-16 21:28:00,
2013-05-16 17:33:00,82.2,62.3,29.94,NW,312,0.1,2.3,51,0.00,BKN,,0.00,WeatherDisplay:10.37,2013-05-16 21:33:00,
2013-05-16 17:38:00,82.0,62.1,29.94,NNW,335,2.7,2.7,51,0.00,BKN,,0.00,WeatherDisplay:10.37,2013-05-16 21:38:00,
2013-05-16 17:43:00,81.5,61.6,29.94,NNW,335,0.0,0.0,51,0.00,BKN,,0.00,WeatherDisplay:10.37,2013-05-16 21:43:00,
2013-05-16 17:48:00,80.8,61.5,29.94,NW,312,4.0,4.0,52,0.00,BKN,,0.00,WeatherDisplay:10.37,2013-05-16 21:48:00,
2013-05-16 17:53:00,80.2,61.0,29.94,NNW,335,4.7,4.7,52,0.00,BKN,,0.00,WeatherDisplay:10.37,2013-05-16 21:53:00,
2013-05-16 17:58:00,79.9,60.7,29.94,North,357,0.0,0.0,52,0.00,BKN,,0.00,WeatherDisplay:10.37,2013-05-16 21:58:00,
2013-05-16 18:03:00,80.1,61.4,29.94,NNW,335,2.3,3.5,53,0.00,BKN,,0.00,WeatherDisplay:10.37,2013-05-16 22:03:00,
2013-05-16 18:08:00,80.2,61.0,29.94,NNW,335,3.3,3.6,52,0.00,BKN,,0.00,WeatherDisplay:10.37,2013-05-16 22:08:00,
2013-05-16 18:13:00,80.2,61.6,29.94,NNW,335,0.0,0.0,53,0.00,BKN,,0.00,WeatherDisplay:10.37,2013-05-16 22:13:00,
2013-05-16 18:18:00,80.2,61.6,29.94,East,87,0.0,0.0,53,0.00,BKN,,0.00,WeatherDisplay:10.37,2013-05-16 22:18:00,
2013-05-16 18:23:00,80.4,61.7,29.94,ENE,65,0.0,0.0,53,0.00,BKN,,0.00,WeatherDisplay:10.37,2013-05-16 22:23:00,
2013-05-16 18:28:00,80.8,61.5,29.94,East,87,0.0,0.0,52,0.00,BKN,,0.00,WeatherDisplay:10.37,2013-05-16 22:28:00,
2013-05-16 18:33:00,80.8,62.1,29.94,NE,42,0.0,1.1,53,0.00,BKN,,0.00,WeatherDisplay:10.37,2013-05-16 22:33:00,
2013-05-16 18:38:00,80.8,62.1,29.94,North,357,0.9,1.1,53,0.00,BKN,,0.00,WeatherDisplay:10.37,2013-05-16 22:38:00,
2013-05-16 18:43:00,80.8,62.1,29.94,ENE,65,0.9,0.0,53,0.00,BKN,,0.00,WeatherDisplay:10.37,2013-05-16 22:43:00,
2013-05-16 18:48:00,80.1,60.8,29.93,NNE,19,0.0,0.0,52,0.00,BKN,,0.00,WeatherDisplay:10.37,2013-05-16 22:48:00,
2013-05-16 18:53:00,79.9,60.7,29.93,ENE,65,0.0,0.0,52,0.00,BKN,,0.00,WeatherDisplay:10.37,2013-05-16 22:53:00,
2013-05-16 18:58:00,79.5,61.4,29.93,East,87,0.0,0.0,54,0.00,BKN,,0.00,WeatherDisplay:10.37,2013-05-16 22:58:00,
2013-05-16 19:03:00,79.0,60.9,29.94,ENE,65,0.8,1.1,54,0.00,BKN,,0.00,WeatherDisplay:10.37,2013-05-16 23:03:00,
2013-05-16 19:08:00,78.6,60.6,29.94,NE,42,0.0,2.5,54,0.00,BKN,,0.00,WeatherDisplay:10.37,2013-05-16 23:08:00,
2013-05-16 19:13:00,78.1,60.1,29.93,ESE,109,2.5,0.0,54,0.00,BKN,,0.00,WeatherDisplay:10.37,2013-05-16 23:13:00,
2013-05-16 19:18:00,78.1,60.1,29.93,ESE,109,0.0,0.0,54,0.00,BKN,,0.00,WeatherDisplay:10.37,2013-05-16 23:18:00,
2013-05-16 19:23:00,76.8,61.4,29.94,East,87,0.0,0.0,59,0.00,BKN,,0.00,WeatherDisplay:10.37,2013-05-16 23:23:00,
2013-05-16 19:28:00,76.8,61.4,29.94,ESE,109,0.0,0.0,59,0.00,BKN,,0.00,WeatherDisplay:10.37,2013-05-16 23:28:00,
2013-05-16 19:33:00,76.8,61.4,29.94,ENE,65,0.0,0.0,59,0.00,BKN,,0.00,WeatherDisplay:10.37,2013-05-16 23:33:00,
2013-05-16 19:38:00,75.7,60.9,29.93,SE,132,0.0,0.0,60,0.00,BKN,,0.00,WeatherDisplay:10.37,2013-05-16 23:38:00,
2013-05-16 19:43:00,75.7,61.3,29.93,ENE,65,0.0,0.0,61,0.00,BKN,,0.00,WeatherDisplay:10.37,2013-05-16 23:43:00,
2013-05-16 19:48:00,75.0,60.7,29.93,NE,42,0.0,0.0,61,0.00,BKN,,0.00,WeatherDisplay:10.37,2013-05-16 23:48:00,
2013-05-16 19:53:00,75.0,60.7,29.93,NE,42,0.0,0.0,61,0.00,BKN,,0.00,WeatherDisplay:10.37,2013-05-16 23:53:00,
2013-05-16 19:58:00,74.1,60.7,29.93,ENE,65,0.0,0.0,63,0.00,BKN,,0.00,WeatherDisplay:10.37,2013-05-16 23:58:00,
2013-05-16 20:03:00,74.1,60.7,29.93,ENE,65,0.0,0.0,63,0.00,BKN,,0.00,WeatherDisplay:10.37,2013-05-17 00:03:00,
2013-05-16 20:08:00,74.1,61.2,29.93,ENE,65,0.0,0.0,64,0.00,BKN,,0.00,WeatherDisplay:10.37,2013-05-17 00:08:00,
2013-05-16 20:13:00,73.4,60.5,29.93,ESE,109,0.0,0.0,64,0.00,OVC,,0.00,WeatherDisplay:10.37,2013-05-17 00:13:00,
2013-05-16 20:18:00,73.2,60.7,29.93,ENE,65,0.0,0.0,65,0.00,OVC,,0.00,WeatherDisplay:10.37,2013-05-17 00:18:00,
2013-05-16 20:23:00,73.0,61.0,29.93,ESE,109,0.0,0.0,66,0.00,OVC,,0.00,WeatherDisplay:10.37,2013-05-17 00:23:00,
2013-05-16 20:28:00,72.7,60.7,29.93,ESE,109,0.0,0.0,66,0.00,OVC,,0.00,WeatherDisplay:10.37,2013-05-17 00:28:00,
2013-05-16 20:33:00,72.5,60.5,29.93,East,87,0.0,0.0,66,0.00,OVC,,0.00,WeatherDisplay:10.37,2013-05-17 00:33:00,
2013-05-16 20:38:00,72.5,60.9,29.93,East,87,0.0,0.0,67,0.00,OVC,,0.00,WeatherDisplay:10.37,2013-05-17 00:38:00,
2013-05-16 20:43:00,72.1,60.6,29.93,East,87,0.0,0.0,67,0.00,OVC,,0.00,WeatherDisplay:10.37,2013-05-17 00:43:00,
2013-05-16 20:48:00,71.8,60.2,29.93,ENE,65,0.0,0.0,67,0.00,OVC,,0.00,WeatherDisplay:10.37,2013-05-17 00:48:00,
2013-05-16 20:53:00,71.4,60.3,29.93,ENE,65,0.0,0.0,68,0.00,OVC,,0.00,WeatherDisplay:10.37,2013-05-17 00:53:00,
2013-05-16 20:58:00,71.4,60.3,29.93,SE,132,0.0,0.0,68,0.00,OVC,,0.00,WeatherDisplay:10.37,2013-05-17 00:58:00,
2013-05-16 21:03:00,71.4,60.3,29.93,NW,312,0.0,0.0,68,0.00,OVC,,0.00,WeatherDisplay:10.37,2013-05-17 01:03:00,
2013-05-16 21:08:00,70.9,60.2,29.94,ENE,65,0.0,0.0,69,0.00,OVC,,0.00,WeatherDisplay:10.37,2013-05-17 01:08:00,
2013-05-16 21:13:00,70.9,60.2,29.94,SE,132,0.0,0.0,69,0.00,FEW,,0.00,WeatherDisplay:10.37,2013-05-17 01:13:00,
2013-05-16 21:18:00,70.7,60.0,29.94,SE,132,0.0,0.0,69,0.00,FEW,,0.00,WeatherDisplay:10.37,2013-05-17 01:18:00,
2013-05-16 21:23:00,70.5,59.9,29.94,NW,312,0.0,0.0,69,0.00,FEW,,0.00,WeatherDisplay:10.37,2013-05-17 01:23:00,
2013-05-16 21:28:00,70.3,60.1,29.94,SSW,199,0.0,0.0,70,0.00,FEW,,0.00,WeatherDisplay:10.37,2013-05-17 01:28:00,
2013-05-16 21:33:00,70.2,59.9,29.94,ESE,109,0.0,0.0,70,0.00,FEW,,0.00,WeatherDisplay:10.37,2013-05-17 01:33:00,
2013-05-16 21:38:00,70.0,59.7,29.95,West,267,0.0,0.0,70,0.00,FEW,,0.00,WeatherDisplay:10.37,2013-05-17 01:38:00,
2013-05-16 21:43:00,69.8,60.0,29.95,ENE,65,0.0,0.0,71,0.00,FEW,,0.00,WeatherDisplay:10.37,2013-05-17 01:43:00,
2013-05-16 21:48:00,69.6,59.8,29.95,ENE,65,0.0,0.0,71,0.00,FEW,,0.00,WeatherDisplay:10.37,2013-05-17 01:48:00,
2013-05-16 21:53:00,69.6,59.8,29.95,East,87,0.0,0.0,71,0.00,FEW,,0.00,WeatherDisplay:10.37,2013-05-17 01:53:00,
2013-05-16 21:58:00,69.6,59.8,29.95,WSW,245,0.8,1.6,71,0.00,FEW,,0.00,WeatherDisplay:10.37,2013-05-17 01:58:00,
2013-05-16 22:03:00,69.4,59.6,29.95,South,177,0.0,0.0,71,0.00,FEW,,0.00,WeatherDisplay:10.37,2013-05-17 02:03:00,
2013-05-16 22:08:00,69.4,59.6,29.95,NE,42,0.3,1.3,71,0.00,FEW,,0.00,WeatherDisplay:10.37,2013-05-17 02:08:00,
2013-05-16 22:13:00,69.3,59.5,29.95,East,87,0.0,0.0,71,0.00,BKN,,0.00,WeatherDisplay:10.37,2013-05-17 02:13:00,
2013-05-16 22:18:00,69.1,59.3,29.96,SE,132,0.0,1.1,71,0.00,BKN,,0.00,WeatherDisplay:10.37,2013-05-17 02:18:00,
2013-05-16 22:23:00,69.1,59.7,29.96,NE,42,0.0,0.0,72,0.00,BKN,,0.00,WeatherDisplay:10.37,2013-05-17 02:23:00,
2013-05-16 22:28:00,68.7,59.3,29.96,ESE,109,0.0,0.0,72,0.00,BKN,,0.00,WeatherDisplay:10.37,2013-05-17 02:28:00,
2013-05-16 22:33:00,68.5,59.2,29.96,SSE,155,0.0,0.0,72,0.00,BKN,,0.00,WeatherDisplay:10.37,2013-05-17 02:33:00,
2013-05-16 22:38:00,68.4,59.4,29.96,East,87,0.0,0.0,73,0.00,BKN,,0.00,WeatherDisplay:10.37,2013-05-17 02:38:00,
2013-05-16 22:43:00,68.2,59.2,29.96,ENE,65,0.0,0.0,73,0.00,BKN,,0.00,WeatherDisplay:10.37,2013-05-17 02:43:00,
2013-05-16 22:48:00,67.8,59.2,29.96,ENE,65,0.0,0.0,74,0.00,BKN,,0.00,WeatherDisplay:10.37,2013-05-17 02:48:00,
2013-05-16 22:53:00,67.6,59.1,29.96,ENE,65,0.0,0.0,74,0.00,BKN,,0.00,WeatherDisplay:10.37,2013-05-17 02:53:00,
2013-05-16 22:58:00,67.6,59.1,29.97,ENE,65,0.0,0.0,74,0.00,BKN,,0.00,WeatherDisplay:10.37,2013-05-17 02:58:00,
2013-05-16 23:03:00,67.3,58.7,29.97,East,87,0.0,0.0,74,0.00,BKN,,0.00,WeatherDisplay:10.37,2013-05-17 03:03:00,
2013-05-16 23:08:00,66.9,58.7,29.96,ENE,65,0.0,0.0,75,0.00,BKN,,0.00,WeatherDisplay:10.37,2013-05-17 03:08:00,
2013-05-16 23:13:00,66.7,58.6,29.96,ENE,65,0.0,0.0,75,0.00,SCT,,0.00,WeatherDisplay:10.37,2013-05-17 03:13:00,
2013-05-16 23:18:00,66.6,58.8,29.96,ENE,65,0.0,0.0,76,0.00,SCT,,0.00,WeatherDisplay:10.37,2013-05-17 03:18:00,
2013-05-16 23:23:00,66.4,58.6,29.96,North,357,0.0,0.0,76,0.00,SCT,,0.00,WeatherDisplay:10.37,2013-05-17 03:23:00,
2013-05-16 23:28:00,66.4,58.9,29.96,ENE,65,0.0,0.0,77,0.00,SCT,,0.00,WeatherDisplay:10.37,2013-05-17 03:28:00,
2013-05-16 23:33:00,66.0,58.6,29.96,ENE,65,0.0,0.0,77,0.00,SCT,,0.00,WeatherDisplay:10.37,2013-05-17 03:33:00,
2013-05-16 23:38:00,66.0,58.6,29.96,North,357,0.0,0.0,77,0.00,SCT,,0.00,WeatherDisplay:10.37,2013-05-17 03:38:00,
2013-05-16 23:43:00,65.8,58.8,29.96,ENE,65,0.0,0.0,78,0.00,SCT,,0.00,WeatherDisplay:10.37,2013-05-17 03:43:00,
2013-05-16 23:48:00,65.7,58.6,29.95,ENE,65,0.0,0.0,78,0.00,SCT,,0.00,WeatherDisplay:10.37,2013-05-17 03:48:00,
2013-05-16 23:53:00,65.5,58.8,29.95,ENE,65,0.0,0.0,79,0.00,SCT,,0.00,WeatherDisplay:10.37,2013-05-17 03:53:00,
2013-05-16 23:58:00,65.3,58.6,29.96,East,87,0.0,0.0,79,0.00,SCT,,0.00,WeatherDisplay:10.37,2013-05-17 03:58:00,